Time;durP1;ratioP1;P1;durP2;ratioP2;P2;SDS_P1;SDS_P2;PMS_P1;PMS_P2;Temp;Humidity;BMP_temperature;BMP_pressure;BME280_temperature;BME280_humidity;BME280_pressure;Samples;Min_cycle;Max_cycle;Signal;HPM_P1;HPM_P2
2024/01/20 00:01:12;;;;;;;7.83;3.20;;;1.80;99.90;;;;;;5051961;28;20420;-67
2024/01/20 00:03:38;;;;;;;8.53;3.43;;;1.70;99.90;;;;;;5039094;28;20125;-67
2024/01/20 00:06:04;;;;;;;9.70;3.70;;;1.70;99.90;;;;;;5047256;28;20303;-68
2024/01/20 00:08:32;;;;;;;12.77;3.47;;;1.70;99.90;;;;;;5039391;28;20032;-67
2024/01/20 00:11:00;;;;;;;10.65;3.90;;;1.70;99.90;;;;;;5046055;28;20223;-68
2024/01/20 00:13:25;;;;;;;7.30;2.95;;;1.60;99.90;;;;;;5049641;28;20072;-68
2024/01/20 00:15:51;;;;;;;9.73;3.93;;;1.70;99.90;;;;;;5051384;28;20149;-67
2024/01/20 00:18:20;;;;;;;8.55;3.45;;;1.70;99.90;;;;;;5036840;28;20041;-68
2024/01/20 00:20:46;;;;;;;10.80;3.42;;;1.70;99.90;;;;;;5053367;28;20044;-68
2024/01/20 00:23:12;;;;;;;12.47;4.10;;;1.70;99.90;;;;;;5067827;28;20046;-68
2024/01/20 00:25:40;;;;;;;;;;;1.70;99.90;;;;;;5040109;28;20070;-68
2024/01/20 00:28:12;;;;;;;7.47;3.80;;;1.60;99.90;;;;;;5035803;28;19925;-67
2024/01/20 00:30:40;;;;;;;8.23;4.13;;;1.70;99.90;;;;;;5034627;28;20089;-68
2024/01/20 00:33:08;;;;;;;10.80;3.92;;;1.70;99.90;;;;;;5043128;28;20284;-67
2024/01/20 00:35:36;;;;;;;5.60;4.00;;;1.70;99.90;;;;;;5069190;28;20090;-67
2024/01/20 00:38:02;;;;;;;8.32;4.50;;;1.70;99.90;;;;;;5051112;28;20052;-70
2024/01/20 00:40:28;;;;;;;8.93;4.82;;;1.70;99.90;;;;;;5056565;28;20049;-68
2024/01/20 00:42:54;;;;;;;7.93;3.63;;;1.70;99.90;;;;;;5033778;28;20448;-68
2024/01/20 00:45:20;;;;;;;10.13;4.40;;;1.70;99.90;;;;;;5056490;28;20044;-68
2024/01/20 00:47:45;;;;;;;14.97;4.37;;;1.70;99.90;;;;;;5069325;28;20047;-67
2024/01/20 00:50:11;;;;;;;18.27;5.20;;;1.70;99.90;;;;;;5051679;28;20492;-68
2024/01/20 00:52:37;;;;;;;11.40;4.13;;;1.70;99.90;;;;;;5043424;28;20051;-69
2024/01/20 00:55:03;;;;;;;11.80;4.55;;;1.70;99.90;;;;;;5059579;28;20045;-67
2024/01/20 00:57:31;;;;;;;12.20;4.15;;;1.70;99.90;;;;;;5068306;28;20040;-68
2024/01/20 00:59:57;;;;;;;13.27;4.43;;;1.80;99.90;;;;;;5053532;28;20040;-68
2024/01/20 01:02:24;;;;;;;9.80;4.67;;;1.70;99.90;;;;;;5048647;28;20416;-68
2024/01/20 01:04:52;;;;;;;12.35;4.93;;;1.80;99.90;;;;;;5045030;28;20049;-68
2024/01/20 01:07:18;;;;;;;7.97;4.50;;;1.80;99.90;;;;;;5069367;28;20041;-68
2024/01/20 01:09:44;;;;;;;7.27;4.33;;;1.70;99.90;;;;;;5050998;28;20044;-68
2024/01/20 01:12:09;;;;;;;8.67;4.40;;;1.70;99.90;;;;;;5034763;28;20058;-68
2024/01/20 01:14:35;;;;;;;21.50;5.23;;;1.70;99.90;;;;;;5059896;28;20037;-68
2024/01/20 01:17:01;;;;;;;8.80;4.50;;;1.70;99.90;;;;;;5040025;28;20043;-68
2024/01/20 01:19:27;;;;;;;9.60;4.63;;;1.70;99.90;;;;;;5063001;28;20036;-68
2024/01/20 01:21:52;;;;;;;11.82;4.68;;;1.80;99.90;;;;;;5034280;28;20468;-68
2024/01/20 01:24:21;;;;;;;11.13;4.23;;;1.80;99.90;;;;;;5053525;28;20048;-69
2024/01/20 01:26:46;;;;;;;13.63;5.05;;;1.80;99.90;;;;;;5050626;28;20543;-68
2024/01/20 01:29:12;;;;;;;9.50;4.70;;;1.80;99.90;;;;;;5067146;28;20040;-68
2024/01/20 01:31:38;;;;;;;9.43;4.53;;;1.80;99.90;;;;;;5057245;28;20068;-68
2024/01/20 01:34:03;;;;;;;11.33;4.30;;;1.80;99.90;;;;;;5072772;28;20457;-69
2024/01/20 01:36:29;;;;;;;9.23;4.47;;;1.80;99.90;;;;;;5060669;28;20051;-69
2024/01/20 01:38:57;;;;;;;9.17;4.83;;;1.80;99.90;;;;;;5060738;28;20040;-68
2024/01/20 01:41:23;;;;;;;11.18;4.95;;;1.80;99.90;;;;;;5054170;28;20037;-68
2024/01/20 01:43:48;;;;;;;8.97;4.63;;;1.80;99.90;;;;;;5072288;28;20040;-68
2024/01/20 01:46:14;;;;;;;12.57;4.57;;;1.80;99.90;;;;;;5057981;28;20072;-69
2024/01/20 01:48:40;;;;;;;9.77;4.43;;;1.80;99.90;;;;;;5054955;28;20302;-68
2024/01/20 01:51:06;;;;;;;10.00;4.07;;;1.80;99.90;;;;;;5050883;28;20289;-68
2024/01/20 01:53:35;;;;;;;11.23;4.23;;;1.80;99.90;;;;;;5055324;28;20101;-68
2024/01/20 01:56:07;;;;;;;8.57;3.85;;;1.90;99.90;;;;;;5060582;28;20420;-68
2024/01/20 01:58:33;;;;;;;11.48;3.97;;;1.90;99.90;;;;;;5059893;28;20040;-67
2024/01/20 02:01:02;;;;;;;10.93;4.35;;;1.90;99.90;;;;;;5066443;28;20049;-68
2024/01/20 02:03:27;;;;;;;11.43;4.53;;;1.90;99.90;;;;;;5041554;28;20404;-68
2024/01/20 02:05:53;;;;;;;10.27;4.73;;;1.90;99.90;;;;;;5071725;28;20044;-68
2024/01/20 02:08:24;;;;;;;8.57;3.93;;;1.80;99.90;;;;;;5061514;28;20086;-68
2024/01/20 02:10:50;;;;;;;12.73;4.65;;;1.90;99.90;;;;;;5071910;28;20028;-68
2024/01/20 02:13:16;;;;;;;8.95;4.38;;;1.90;99.90;;;;;;5072000;28;20078;-68
2024/01/20 02:15:43;;;;;;;10.20;5.05;;;1.90;99.90;;;;;;5053709;28;20106;-68
2024/01/20 02:18:14;;;;;;;10.38;4.13;;;1.90;99.90;;;;;;5053668;28;20377;-68
2024/01/20 02:20:40;;;;;;;7.65;4.35;;;1.80;99.90;;;;;;5067309;28;20098;-68
2024/01/20 02:23:06;;;;;;;17.27;5.73;;;1.90;99.90;;;;;;5064692;28;20048;-68
2024/01/20 02:25:32;;;;;;;13.63;5.53;;;1.90;99.90;;;;;;5069624;28;20136;-68
2024/01/20 02:27:58;;;;;;;15.70;5.90;;;1.80;99.90;;;;;;5069176;28;20072;-68
2024/01/20 02:30:24;;;;;;;11.00;5.03;;;1.80;99.90;;;;;;5049086;28;20445;-69
2024/01/20 02:32:50;;;;;;;11.93;6.13;;;1.70;99.90;;;;;;5056592;28;20079;-68
2024/01/20 02:35:18;;;;;;;10.43;5.30;;;1.80;99.90;;;;;;5070310;28;20554;-68
2024/01/20 02:37:44;;;;;;;13.75;5.20;;;1.80;99.90;;;;;;5058265;28;20036;-67
2024/01/20 02:40:10;;;;;;;17.37;7.37;;;1.80;99.90;;;;;;5072350;28;20043;-67
2024/01/20 02:42:36;;;;;;;9.40;6.15;;;1.70;99.90;;;;;;5078523;28;20036;-67
2024/01/20 02:45:10;;;;;;;11.37;6.30;;;1.70;99.90;;;;;;5051559;28;20267;-67
2024/01/20 02:47:35;;;;;;;11.68;6.55;;;1.60;99.90;;;;;;5056891;28;20040;-68
2024/01/20 02:50:01;;;;;;;11.97;6.50;;;1.60;99.90;;;;;;5055531;28;20047;-68
2024/01/20 02:52:27;;;;;;;14.75;7.10;;;1.60;99.90;;;;;;5070826;28;20027;-68
2024/01/20 02:54:53;;;;;;;12.53;7.17;;;1.50;99.90;;;;;;5059046;28;20134;-68
2024/01/20 02:57:18;;;;;;;10.13;6.53;;;1.50;99.90;;;;;;5051217;28;20501;-68
2024/01/20 02:59:44;;;;;;;11.83;6.80;;;1.50;99.90;;;;;;5070046;28;20451;-69
2024/01/20 03:02:10;;;;;;;14.87;7.80;;;1.40;99.90;;;;;;5049487;28;20044;-68
2024/01/20 03:04:35;;;;;;;15.10;9.10;;;1.40;99.90;;;;;;5057759;28;20134;-68
2024/01/20 03:07:01;;;;;;;13.30;8.30;;;1.40;99.90;;;;;;5048462;28;20124;-69
2024/01/20 03:09:29;;;;;;;15.63;9.10;;;1.30;99.90;;;;;;5071182;28;20041;-68
2024/01/20 03:11:54;;;;;;;15.80;9.13;;;1.30;99.90;;;;;;5071489;28;20062;-68
2024/01/20 03:14:20;;;;;;;17.60;9.67;;;1.20;99.90;;;;;;5046496;28;20051;-68
2024/01/20 03:16:46;;;;;;;16.13;8.27;;;1.20;99.90;;;;;;5051532;28;20454;-68
2024/01/20 03:19:12;;;;;;;15.07;8.93;;;1.20;99.90;;;;;;5050315;28;20067;-68
2024/01/20 03:21:37;;;;;;;19.00;10.52;;;1.20;99.90;;;;;;5051882;28;20077;-68
2024/01/20 03:24:03;;;;;;;23.83;10.00;;;1.20;99.90;;;;;;5048442;28;20056;-67
2024/01/20 03:26:29;;;;;;;18.77;10.05;;;1.20;99.90;;;;;;5056204;28;20028;-68
2024/01/20 03:28:55;;;;;;;18.97;10.23;;;1.20;99.90;;;;;;5051331;28;20420;-68
2024/01/20 03:31:21;;;;;;;19.85;9.80;;;1.10;99.90;;;;;;5037486;28;20032;-68
2024/01/20 03:33:46;;;;;;;19.73;10.57;;;1.10;99.90;;;;;;5048792;28;20041;-68
2024/01/20 03:36:12;;;;;;;20.70;10.63;;;1.10;99.90;;;;;;5052953;28;20054;-68
2024/01/20 03:38:37;;;;;;;24.57;10.97;;;1.20;99.90;;;;;;5076300;28;20051;-68
2024/01/20 03:41:03;;;;;;;20.57;11.53;;;1.10;99.90;;;;;;5070052;28;20079;-69
2024/01/20 03:43:31;;;;;;;20.27;10.17;;;1.10;99.90;;;;;;5037314;28;20103;-68
2024/01/20 03:45:57;;;;;;;21.00;11.70;;;1.10;99.90;;;;;;5036164;28;20050;-68
2024/01/20 03:48:23;;;;;;;22.17;10.73;;;1.10;99.90;;;;;;5053488;28;20127;-68
2024/01/20 03:50:48;;;;;;;20.10;10.90;;;1.10;99.90;;;;;;5056410;28;20103;-70
2024/01/20 03:53:14;;;;;;;23.52;10.43;;;1.10;99.90;;;;;;5052545;28;20045;-68
2024/01/20 03:55:43;;;;;;;22.43;11.37;;;1.10;99.90;;;;;;5055788;28;20055;-68
2024/01/20 03:58:08;;;;;;;21.75;10.98;;;1.10;99.90;;;;;;5057817;28;20117;-68
2024/01/20 04:00:34;;;;;;;21.07;10.77;;;1.10;99.90;;;;;;5053643;28;20044;-68
2024/01/20 04:03:05;;;;;;;19.95;10.43;;;1.10;99.90;;;;;;5056555;28;20123;-69
2024/01/20 04:05:31;;;;;;;26.30;11.32;;;1.10;99.90;;;;;;5048840;28;20064;-68
2024/01/20 04:07:59;;;;;;;22.93;11.50;;;1.10;99.90;;;;;;5056967;28;20075;-68
2024/01/20 04:10:27;;;;;;;22.63;11.38;;;1.10;99.90;;;;;;5058145;28;20036;-68
2024/01/20 04:12:53;;;;;;;22.00;10.73;;;1.10;99.90;;;;;;5044547;28;20440;-68
2024/01/20 04:15:19;;;;;;;25.60;11.33;;;1.10;99.90;;;;;;5053909;28;20059;-68
2024/01/20 04:17:44;;;;;;;22.57;10.80;;;1.10;99.90;;;;;;5051693;28;20044;-68
2024/01/20 04:20:10;;;;;;;24.03;11.30;;;1.10;99.90;;;;;;5067983;28;20034;-68
2024/01/20 04:22:36;;;;;;;23.13;10.30;;;1.00;99.90;;;;;;5056724;28;20335;-68
2024/01/20 04:25:01;;;;;;;18.37;9.87;;;1.10;99.90;;;;;;5070503;28;20360;-68
2024/01/20 04:27:27;;;;;;;21.90;10.43;;;1.10;99.90;;;;;;5036268;28;20028;-69
2024/01/20 04:29:53;;;;;;;26.03;10.97;;;1.10;99.90;;;;;;5069947;28;20083;-68
2024/01/20 04:32:18;;;;;;;22.33;11.17;;;1.10;99.90;;;;;;5051152;28;20377;-68
2024/01/20 04:34:44;;;;;;;24.37;11.10;;;1.10;99.90;;;;;;5050214;28;20416;-68
2024/01/20 04:37:12;;;;;;;20.60;10.50;;;1.10;99.90;;;;;;5072867;28;20040;-68
2024/01/20 04:39:38;;;;;;;20.77;10.95;;;1.00;99.90;;;;;;5052631;28;20041;-69
2024/01/20 04:42:04;;;;;;;22.07;11.20;;;1.00;99.90;;;;;;5069739;28;20174;-68
2024/01/20 04:44:30;;;;;;;22.10;11.52;;;1.00;99.90;;;;;;5052672;28;20032;-69
2024/01/20 04:46:55;;;;;;;22.93;11.33;;;0.90;99.90;;;;;;5072079;28;20081;-68
2024/01/20 04:49:24;;;;;;;23.80;11.27;;;0.90;99.90;;;;;;5072500;28;20037;-67
2024/01/20 04:51:50;;;;;;;22.55;10.68;;;0.90;99.90;;;;;;5071602;28;20115;-70
2024/01/20 04:54:18;;;;;;;22.52;11.23;;;0.90;99.90;;;;;;5069712;28;20480;-70
2024/01/20 04:56:44;;;;;;;26.92;11.85;;;0.90;99.90;;;;;;5067786;28;20404;-68
2024/01/20 04:59:13;;;;;;;21.90;11.03;;;0.90;99.90;;;;;;5064305;28;20045;-69
2024/01/20 05:01:38;;;;;;;23.95;12.02;;;0.90;99.90;;;;;;5078195;28;21480;-68
2024/01/20 05:04:04;;;;;;;21.47;11.03;;;0.90;99.90;;;;;;5055114;28;20562;-68
2024/01/20 05:06:30;;;;;;;25.17;12.10;;;0.90;99.90;;;;;;5072402;28;20044;-68
2024/01/20 05:08:55;;;;;;;19.63;10.30;;;0.90;99.90;;;;;;5056948;28;20476;-68
2024/01/20 05:11:23;;;;;;;25.83;11.00;;;0.80;99.90;;;;;;5055379;28;20072;-68
2024/01/20 05:13:51;;;;;;;22.88;11.18;;;0.90;99.90;;;;;;5056335;28;20039;-68
2024/01/20 05:16:18;;;;;;;26.63;11.43;;;0.90;99.90;;;;;;5074244;28;20059;-68
2024/01/20 05:18:48;;;;;;;22.27;11.50;;;0.90;99.90;;;;;;5072126;28;20059;-69
2024/01/20 05:21:14;;;;;;;21.40;11.45;;;0.90;99.90;;;;;;5054991;28;20489;-68
2024/01/20 05:23:40;;;;;;;21.45;11.20;;;0.90;99.90;;;;;;5055662;28;20336;-68
2024/01/20 05:26:06;;;;;;;26.85;12.10;;;0.90;99.90;;;;;;5029346;28;20070;-68
2024/01/20 05:28:35;;;;;;;25.50;11.77;;;0.90;99.90;;;;;;5075719;28;20491;-68
2024/01/20 05:31:00;;;;;;;22.92;10.35;;;0.80;99.90;;;;;;5064769;28;20346;-68
2024/01/20 05:33:33;;;;;;;19.47;10.80;;;0.80;99.90;;;;;;5069035;28;20433;-68
2024/01/20 05:35:59;;;;;;;27.85;11.20;;;0.80;99.90;;;;;;5050366;28;20423;-68
2024/01/20 05:38:25;;;;;;;23.80;12.07;;;0.90;99.90;;;;;;5054218;28;20127;-68
2024/01/20 05:40:51;;;;;;;19.50;11.23;;;0.80;99.90;;;;;;5053155;28;20368;-68
2024/01/20 05:43:16;;;;;;;24.13;11.73;;;0.80;99.90;;;;;;5053435;28;20127;-68
2024/01/20 05:45:45;;;;;;;34.30;12.10;;;0.80;99.90;;;;;;5041127;28;20068;-69
2024/01/20 05:48:10;;;;;;;26.88;12.13;;;0.80;99.90;;;;;;5072859;28;20558;-68
2024/01/20 05:50:36;;;;;;;27.53;12.53;;;0.80;99.90;;;;;;5056200;28;20036;-68
2024/01/20 05:53:01;;;;;;;26.23;11.97;;;0.80;99.90;;;;;;5071224;28;20105;-69
2024/01/20 05:55:27;;;;;;;27.10;11.90;;;0.80;99.90;;;;;;5053223;28;20048;-68
2024/01/20 05:57:53;;;;;;;22.50;12.45;;;0.70;99.90;;;;;;5051311;28;20062;-68
2024/01/20 06:00:24;;;;;;;28.23;12.23;;;0.70;99.90;;;;;;5052032;28;20109;-68
2024/01/20 06:02:52;;;;;;;22.02;11.25;;;0.80;99.90;;;;;;5051525;28;20399;-68
2024/01/20 06:05:18;;;;;;;23.35;11.77;;;0.70;99.90;;;;;;5049922;28;20044;-68
2024/01/20 06:07:43;;;;;;;27.13;12.00;;;0.70;99.90;;;;;;5049979;28;20523;-68
2024/01/20 06:10:09;;;;;;;28.00;11.50;;;0.70;99.90;;;;;;5066003;28;20040;-68
2024/01/20 06:12:35;;;;;;;32.17;14.23;;;0.70;99.90;;;;;;5070149;28;20036;-68
2024/01/20 06:15:00;;;;;;;34.97;11.47;;;0.70;99.90;;;;;;5053124;28;20055;-70
2024/01/20 06:17:28;;;;;;;26.90;13.43;;;0.70;99.90;;;;;;5035551;28;20072;-68
2024/01/20 06:19:54;;;;;;;28.65;12.00;;;0.70;99.90;;;;;;5056440;28;20614;-69
2024/01/20 06:22:20;;;;;;;29.65;11.63;;;0.70;99.90;;;;;;5044851;28;20049;-67
2024/01/20 06:24:51;;;;;;;29.90;13.13;;;0.70;99.90;;;;;;5070843;28;20110;-68
2024/01/20 06:27:20;;;;;;;29.48;13.05;;;0.70;99.90;;;;;;5047995;28;20049;-68
2024/01/20 06:29:46;;;;;;;31.25;12.45;;;0.70;99.90;;;;;;5046525;28;20032;-70
2024/01/20 06:32:12;;;;;;;31.87;13.73;;;0.70;99.90;;;;;;5037225;28;20071;-68
2024/01/20 06:34:37;;;;;;;26.77;12.10;;;0.70;99.90;;;;;;5047255;28;20123;-68
2024/01/20 06:37:03;;;;;;;24.97;12.10;;;0.70;99.90;;;;;;5068182;28;20036;-68
2024/01/20 06:39:32;;;;;;;28.17;13.23;;;0.60;99.90;;;;;;5052292;28;20053;-71
2024/01/20 06:41:57;;;;;;;28.98;12.32;;;0.60;99.90;;;;;;5039163;28;20040;-69
2024/01/20 06:44:23;;;;;;;33.70;13.23;;;0.60;99.90;;;;;;5060754;28;20059;-69
2024/01/20 06:46:49;;;;;;;33.03;13.27;;;0.60;99.90;;;;;;5053204;28;20382;-69
2024/01/20 06:49:22;;;;;;;28.95;12.18;;;0.60;99.90;;;;;;5069859;28;20040;-69
2024/01/20 06:51:50;;;;;;;26.10;12.63;;;0.60;99.90;;;;;;5064770;28;20217;-69
2024/01/20 06:54:16;;;;;;;29.70;12.38;;;0.60;99.90;;;;;;5051413;28;20082;-69
2024/01/20 06:56:42;;;;;;;30.17;11.83;;;0.60;99.90;;;;;;5054959;28;20037;-69
2024/01/20 06:59:08;;;;;;;30.80;12.98;;;0.60;99.90;;;;;;5065858;28;20040;-69
2024/01/20 07:01:33;;;;;;;35.13;11.37;;;0.60;99.90;;;;;;5053104;28;20052;-69
2024/01/20 07:03:59;;;;;;;35.83;13.37;;;0.60;99.90;;;;;;5066737;28;20044;-69
2024/01/20 07:06:25;;;;;;;25.20;11.67;;;0.60;99.90;;;;;;5068666;28;20796;-69
2024/01/20 07:08:54;;;;;;;24.90;11.48;;;0.60;99.90;;;;;;5061478;28;20074;-69
2024/01/20 07:11:20;;;;;;;28.83;12.07;;;0.60;99.90;;;;;;5041477;28;20045;-68
2024/01/20 07:13:46;;;;;;;28.20;12.73;;;0.60;99.90;;;;;;5029436;28;20462;-69
2024/01/20 07:16:15;;;;;;;28.07;12.37;;;0.60;99.90;;;;;;5062967;28;20062;-69
2024/01/20 07:18:42;;;;;;;34.28;12.57;;;0.60;99.90;;;;;;5038481;28;20123;-68
2024/01/20 07:21:07;;;;;;;27.75;13.10;;;0.70;99.90;;;;;;5045098;28;20417;-68
2024/01/20 07:23:33;;;;;;;30.38;12.82;;;0.70;99.90;;;;;;5051864;28;20048;-68
2024/01/20 07:25:59;;;;;;;26.43;12.33;;;0.70;99.90;;;;;;5051902;28;20155;-68
2024/01/20 07:28:28;;;;;;;27.85;12.27;;;0.80;99.90;;;;;;5050374;28;20033;-68
2024/01/20 07:30:54;;;;;;;25.25;11.85;;;0.90;99.90;;;;;;5042638;28;20058;-68
2024/01/20 07:33:22;;;;;;;26.97;12.97;;;0.90;99.90;;;;;;5068049;28;20229;-68
2024/01/20 07:35:51;;;;;;;30.38;12.32;;;0.90;99.90;;;;;;5061467;28;20405;-68
2024/01/20 07:38:17;;;;;;;25.67;12.20;;;1.00;99.90;;;;;;5041510;28;20106;-69
2024/01/20 07:40:42;;;;;;;30.50;12.23;;;1.00;99.90;;;;;;5071834;28;20032;-69
2024/01/20 07:43:11;;;;;;;29.73;12.73;;;1.00;99.90;;;;;;5066473;28;20131;-68
2024/01/20 07:45:39;;;;;;;26.45;12.35;;;1.00;99.90;;;;;;5056345;28;20044;-69
2024/01/20 07:48:05;;;;;;;32.95;13.48;;;1.00;99.90;;;;;;5057427;28;20045;-68
2024/01/20 07:50:30;;;;;;;26.10;11.43;;;1.10;99.90;;;;;;5060425;28;20140;-69
2024/01/20 07:52:59;;;;;;;27.10;12.37;;;1.10;99.90;;;;;;5062110;28;20083;-68
2024/01/20 07:55:24;;;;;;;24.92;12.05;;;1.20;99.90;;;;;;5058813;28;20127;-68
2024/01/20 07:57:50;;;;;;;31.40;13.13;;;1.20;99.90;;;;;;5051165;28;20127;-68
2024/01/20 08:00:16;;;;;;;26.90;12.07;;;1.20;99.90;;;;;;5049240;28;20480;-68
2024/01/20 08:02:42;;;;;;;29.83;13.25;;;1.20;99.90;;;;;;5050497;28;20664;-68
2024/01/20 08:05:07;;;;;;;33.37;14.30;;;1.30;99.90;;;;;;5048173;28;20390;-69
2024/01/20 08:07:33;;;;;;;29.80;13.27;;;1.30;99.90;;;;;;5064849;28;20044;-68
2024/01/20 08:09:59;;;;;;;30.47;14.07;;;1.40;99.90;;;;;;5060885;28;20090;-68
2024/01/20 08:12:25;;;;;;;26.87;13.60;;;1.40;99.90;;;;;;5048336;28;20047;-68
2024/01/20 08:14:50;;;;;;;28.67;14.07;;;1.40;99.90;;;;;;5051094;28;20132;-71
2024/01/20 08:17:19;;;;;;;36.38;13.50;;;1.40;99.90;;;;;;5068663;28;20044;-72
2024/01/20 08:19:45;;;;;;;;;;;1.40;99.90;;;;;;5069174;28;20051;-70
2024/01/20 08:22:14;;;;;;;34.00;14.60;;;1.40;99.90;;;;;;5044299;28;19916;-71
2024/01/20 08:24:39;;;;;;;32.58;14.23;;;1.40;99.90;;;;;;5067917;28;20045;-70
2024/01/20 08:27:05;;;;;;;30.43;13.43;;;1.40;99.90;;;;;;5067487;28;20040;-68
2024/01/20 08:29:33;;;;;;;36.08;15.15;;;1.40;99.90;;;;;;5053411;28;20040;-68
2024/01/20 08:31:59;;;;;;;26.03;13.43;;;1.40;99.90;;;;;;5061971;28;20043;-68
2024/01/20 08:34:26;;;;;;;34.33;13.90;;;1.40;99.90;;;;;;5056806;28;20046;-68
2024/01/20 08:36:51;;;;;;;30.95;13.82;;;1.40;99.90;;;;;;5058192;28;20048;-68
2024/01/20 08:39:20;;;;;;;29.70;13.73;;;1.50;99.90;;;;;;5064684;28;20055;-68
2024/01/20 08:41:46;;;;;;;32.40;13.95;;;1.50;99.90;;;;;;5054034;28;20063;-68
2024/01/20 08:44:12;;;;;;;31.23;13.52;;;1.50;99.90;;;;;;5054410;28;20063;-68
2024/01/20 08:46:41;;;;;;;33.53;13.80;;;1.50;99.90;;;;;;5037889;28;20057;-67
2024/01/20 08:49:07;;;;;;;33.58;12.48;;;1.60;99.90;;;;;;5047341;28;20116;-68
2024/01/20 08:51:32;;;;;;;34.63;13.70;;;1.60;99.90;;;;;;5073553;28;20131;-68
2024/01/20 08:53:58;;;;;;;29.93;12.80;;;1.60;99.90;;;;;;5072285;28;20265;-67
2024/01/20 08:56:24;;;;;;;29.33;13.67;;;1.60;99.90;;;;;;5042307;28;20044;-68
2024/01/20 08:58:53;;;;;;;31.70;13.55;;;1.60;99.90;;;;;;5073085;28;20499;-67
2024/01/20 09:01:18;;;;;;;29.73;12.10;;;1.70;99.90;;;;;;5072973;28;20041;-68
2024/01/20 09:03:44;;;;;;;28.10;14.00;;;1.70;99.90;;;;;;5054946;28;20047;-68
2024/01/20 09:06:14;;;;;;;24.97;11.90;;;1.70;99.90;;;;;;5059681;28;20521;-68
2024/01/20 09:08:40;;;;;;;30.38;12.40;;;1.70;99.90;;;;;;5061998;28;20044;-67
2024/01/20 09:11:06;;;;;;;27.17;12.20;;;1.70;99.90;;;;;;5065937;28;20043;-68
2024/01/20 09:13:32;;;;;;;26.40;12.80;;;1.70;99.90;;;;;;5051666;28;20407;-68
2024/01/20 09:16:00;;;;;;;27.33;12.17;;;1.80;99.90;;;;;;5046893;28;20044;-67
2024/01/20 09:18:28;;;;;;;27.02;11.88;;;1.80;99.90;;;;;;5072935;28;20052;-67
2024/01/20 09:20:54;;;;;;;25.85;11.02;;;1.90;99.90;;;;;;5054570;28;20455;-68
2024/01/20 09:23:22;;;;;;;30.33;11.70;;;1.80;99.90;;;;;;5055867;28;20124;-68
2024/01/20 09:25:48;;;;;;;27.92;11.60;;;1.90;99.90;;;;;;5063813;28;20462;-68
2024/01/20 09:28:17;;;;;;;27.83;10.50;;;1.90;99.90;;;;;;5037937;28;20074;-68
2024/01/20 09:30:43;;;;;;;26.98;10.55;;;1.90;99.90;;;;;;5072430;28;20040;-68
2024/01/20 09:33:08;;;;;;;30.43;11.53;;;1.90;99.90;;;;;;5051148;28;20501;-67
2024/01/20 09:35:37;;;;;;;26.88;11.40;;;1.90;99.90;;;;;;5056082;28;20055;-68
2024/01/20 09:38:03;;;;;;;27.73;11.93;;;1.90;99.90;;;;;;5054460;28;20591;-68
2024/01/20 09:40:30;;;;;;;23.97;11.07;;;2.00;99.90;;;;;;5054371;28;20056;-67
2024/01/20 09:42:55;;;;;;;26.55;11.88;;;2.00;99.90;;;;;;5054321;28;20119;-68
2024/01/20 09:45:22;;;;;;;26.15;11.88;;;2.00;99.90;;;;;;5036968;28;20115;-68
2024/01/20 09:47:48;;;;;;;;;;;2.00;99.90;;;;;;5061672;28;20040;-68
2024/01/20 09:50:13;;;;;;;30.52;10.85;;;2.10;99.90;;;;;;5072355;28;20296;-68
2024/01/20 09:53:07;;;;;;;24.00;11.73;;;2.10;99.90;;;;;;5072448;28;20048;-68
2024/01/20 09:55:33;;;;;;;27.08;12.38;;;2.10;99.90;;;;;;5062143;28;20048;-68
2024/01/20 09:58:00;;;;;;;23.17;11.38;;;2.20;99.90;;;;;;5050002;28;20515;-68
2024/01/20 10:00:26;;;;;;;26.23;10.52;;;2.20;99.90;;;;;;5066642;28;20104;-68
2024/01/20 10:02:54;;;;;;;25.00;10.53;;;2.30;99.90;;;;;;5043807;28;20136;-68
2024/01/20 10:05:23;;;;;;;23.08;10.93;;;2.20;99.90;;;;;;5051280;28;20053;-68
2024/01/20 10:07:49;;;;;;;25.55;11.85;;;2.20;99.90;;;;;;5070891;28;20546;-68
2024/01/20 10:10:21;;;;;;;31.03;11.50;;;2.30;99.90;;;;;;5055933;28;20040;-68
2024/01/20 10:12:51;;;;;;;22.75;10.35;;;2.30;99.90;;;;;;5027131;28;20107;-68
2024/01/20 10:15:29;;;;;;;23.77;10.40;;;2.40;99.90;;;;;;5055858;28;20428;-68
2024/01/20 10:17:55;;;;;;;25.10;10.18;;;2.40;99.90;;;;;;5055104;28;20130;-68
2024/01/20 10:20:23;;;;;;;28.77;10.77;;;2.40;99.90;;;;;;5050291;28;20397;-68
2024/01/20 10:22:50;;;;;;;26.92;11.48;;;2.50;99.90;;;;;;5071541;28;20493;-68
2024/01/20 10:25:19;;;;;;;;;;;2.50;99.90;;;;;;5043584;28;20465;-68
2024/01/20 10:27:47;;;;;;;24.05;10.98;;;2.50;99.90;;;;;;5059860;28;19917;-67
2024/01/20 10:30:15;;;;;;;25.25;10.68;;;2.50;99.90;;;;;;5046987;28;20088;-68
2024/01/20 10:32:44;;;;;;;26.60;10.75;;;2.50;99.90;;;;;;5043354;28;20048;-68
2024/01/20 10:35:15;;;;;;;23.17;9.88;;;2.40;99.90;;;;;;5071745;28;20111;-68
2024/01/20 10:37:46;;;;;;;23.65;10.75;;;2.50;99.90;;;;;;5070678;28;20082;-68
2024/01/20 10:40:12;;;;;;;21.30;10.82;;;2.50;99.90;;;;;;5053174;28;20045;-67
2024/01/20 10:42:46;;;;;;;24.40;10.82;;;2.50;99.90;;;;;;5058042;28;20098;-68
2024/01/20 10:45:24;;;;;;;25.73;10.48;;;2.40;99.90;;;;;;5040315;28;20528;-67
2024/01/20 10:47:59;;;;;;;26.08;11.15;;;2.50;99.90;;;;;;5063549;28;20047;-67
2024/01/20 10:50:25;;;;;;;25.40;10.48;;;2.50;99.90;;;;;;5070796;28;20051;-67
2024/01/20 10:52:51;;;;;;;;;;;2.50;99.90;;;;;;5053617;28;20036;-67
2024/01/20 10:55:22;;;;;;;28.60;10.73;;;2.40;99.90;;;;;;5070219;28;19916;-67
2024/01/20 10:57:52;;;;;;;31.33;11.93;;;2.40;99.90;;;;;;5049262;28;20037;-67
2024/01/20 11:00:22;;;;;;;29.08;10.30;;;2.40;99.90;;;;;;5066834;28;20554;-67
2024/01/20 11:02:48;;;;;;;28.73;10.88;;;2.40;99.90;;;;;;5070732;28;20041;-68
2024/01/20 11:05:25;;;;;;;24.20;11.17;;;2.40;99.90;;;;;;5067833;28;20063;-68
2024/01/20 11:08:07;;;;;;;23.10;11.88;;;2.40;99.90;;;;;;5051282;28;20286;-68
2024/01/20 11:10:45;;;;;;;30.75;13.00;;;2.30;99.90;;;;;;5058384;28;20093;-68
2024/01/20 11:13:12;;;;;;;30.00;11.93;;;2.20;99.90;;;;;;5053240;28;20505;-67
2024/01/20 11:15:39;;;;;;;29.88;11.82;;;2.20;99.90;;;;;;5064312;28;20107;-67
2024/01/20 11:18:22;;;;;;;31.38;13.10;;;2.20;99.90;;;;;;5051912;28;20048;-67
2024/01/20 11:21:00;;;;;;;25.88;11.75;;;2.10;99.90;;;;;;5025237;28;20060;-68
2024/01/20 11:23:26;;;;;;;29.13;12.57;;;2.10;99.90;;;;;;5038102;28;20048;-67
2024/01/20 11:25:53;;;;;;;33.70;15.07;;;2.10;99.90;;;;;;5049789;28;20052;-67
2024/01/20 11:28:33;;;;;;;36.45;14.10;;;2.10;99.90;;;;;;5070545;28;20054;-67
2024/01/20 11:31:05;;;;;;;33.38;13.38;;;2.10;99.90;;;;;;5070616;28;20119;-67
2024/01/20 11:33:31;;;;;;;31.80;13.60;;;2.10;99.90;;;;;;5060624;28;20115;-67
2024/01/20 11:35:56;;;;;;;30.52;14.35;;;2.10;99.90;;;;;;5068878;28;20516;-67
2024/01/20 11:38:22;;;;;;;30.37;13.90;;;2.10;99.90;;;;;;5047991;28;20091;-67
2024/01/20 11:41:06;;;;;;;29.20;13.17;;;2.10;99.90;;;;;;5069058;28;20067;-68
2024/01/20 11:43:31;;;;;;;35.72;16.05;;;2.20;99.90;;;;;;5050073;28;20044;-69
2024/01/20 11:46:00;;;;;;;33.65;13.93;;;2.20;99.90;;;;;;5051431;28;20075;-67
2024/01/20 11:48:26;;;;;;;30.60;14.10;;;2.20;99.90;;;;;;5068576;28;20036;-67
2024/01/20 11:50:52;;;;;;;29.53;14.13;;;2.20;99.90;;;;;;5052522;28;20124;-67
2024/01/20 11:53:21;;;;;;;34.95;14.07;;;2.30;99.90;;;;;;5062229;28;20276;-67
2024/01/20 11:56:02;;;;;;;37.88;15.00;;;2.30;99.90;;;;;;5052146;28;20424;-67
2024/01/20 11:58:31;;;;;;;34.28;15.05;;;2.40;99.90;;;;;;5067491;28;20046;-69
2024/01/20 12:01:02;;;;;;;33.65;13.50;;;2.40;99.90;;;;;;5051642;28;20093;-69
2024/01/20 12:03:31;;;;;;;33.00;15.02;;;2.40;99.90;;;;;;5054491;28;20048;-68
2024/01/20 12:06:07;;;;;;;34.67;13.48;;;2.40;99.90;;;;;;5058020;28;20468;-69
2024/01/20 12:08:35;;;;;;;31.02;14.23;;;2.50;99.90;;;;;;5053075;28;20098;-69
2024/01/20 12:11:03;;;;;;;33.80;14.05;;;2.50;99.90;;;;;;5060860;28;20040;-68
2024/01/20 12:13:32;;;;;;;28.33;12.60;;;2.50;99.90;;;;;;5038296;28;20047;-67
2024/01/20 12:15:58;;;;;;;29.38;12.93;;;2.50;99.90;;;;;;5032365;28;20048;-67
2024/01/20 12:18:24;;;;;;;30.88;13.52;;;2.50;99.90;;;;;;5054674;28;20532;-68
2024/01/20 12:20:50;;;;;;;28.33;12.43;;;2.60;99.90;;;;;;5052102;28;20076;-67
2024/01/20 12:23:18;;;;;;;30.50;13.63;;;2.60;99.90;;;;;;5038923;28;20083;-68
2024/01/20 12:25:44;;;;;;;28.50;12.45;;;2.70;99.90;;;;;;5043391;28;20049;-67
2024/01/20 12:28:09;;;;;;;31.33;10.93;;;2.70;99.90;;;;;;5057847;28;20033;-67
2024/01/20 12:30:35;;;;;;;31.27;11.43;;;2.70;99.90;;;;;;5067812;28;20572;-67
2024/01/20 12:33:03;;;;;;;25.80;11.43;;;2.80;99.90;;;;;;5060055;28;20094;-67
2024/01/20 12:35:29;;;;;;;25.80;10.82;;;2.80;99.90;;;;;;5069273;28;20052;-67
2024/01/20 12:37:56;;;;;;;27.30;11.37;;;2.80;99.90;;;;;;5031819;28;20041;-67
2024/01/20 12:40:22;;;;;;;24.38;10.77;;;2.90;99.90;;;;;;5065034;28;20391;-69
2024/01/20 12:42:47;;;;;;;26.77;11.27;;;2.90;99.90;;;;;;5057095;28;20111;-69